Time;durP1;ratioP1;P1;durP2;ratioP2;P2;SDS_P1;SDS_P2;PMS_P1;PMS_P2;Temp;Humidity;BMP_temperature;BMP_pressure;BME280_temperature;BME280_humidity;BME280_pressure;Samples;Min_cycle;Max_cycle;Signal;HPM_P1;HPM_P2
2021/08/02 00:00:25;;;;;;;2.00;1.17;;;18.70;99.90;;;;;;6274900;28;20477;-66
2021/08/02 00:03:31;;;;;;;1.70;1.07;;;18.50;99.90;;;;;;6273808;28;20470;-66
2021/08/02 00:06:46;;;;;;;1.47;1.00;;;18.70;99.90;;;;;;6249874;28;20479;-66
2021/08/02 00:09:50;;;;;;;1.90;1.20;;;18.80;99.90;;;;;;6273980;28;20431;-65
2021/08/02 00:13:00;;;;;;;1.10;1.00;;;18.70;99.90;;;;;;6274065;28;20454;-66
2021/08/02 00:16:08;;;;;;;1.70;1.20;;;18.70;99.90;;;;;;6274714;28;20620;-65
2021/08/02 00:19:11;;;;;;;2.20;1.17;;;18.70;99.90;;;;;;6274656;28;21028;-66
2021/08/02 00:22:14;;;;;;;1.30;1.20;;;18.80;99.90;;;;;;6274925;28;20466;-66
2021/08/02 00:25:17;;;;;;;1.03;0.83;;;18.90;99.90;;;;;;6274448;28;20492;-66
2021/08/02 00:28:23;;;;;;;1.60;1.37;;;18.90;99.90;;;;;;6261898;28;20960;-66
2021/08/02 00:31:27;;;;;;;1.07;0.90;;;18.90;99.90;;;;;;6263394;28;20978;-66
2021/08/02 00:34:30;;;;;;;1.60;1.50;;;18.80;99.90;;;;;;6275192;28;20977;-64
2021/08/02 00:37:39;;;;;;;1.50;1.30;;;18.80;99.90;;;;;;6285526;28;20469;-64
2021/08/02 00:41:18;;;;;;;0.90;0.90;;;18.70;99.90;;;;;;6280368;28;20466;-65
2021/08/02 00:44:48;;;;;;;1.13;1.03;;;18.70;99.90;;;;;;6284460;28;20230;-65
2021/08/02 00:47:58;;;;;;;1.20;1.10;;;18.60;99.90;;;;;;6277721;28;20223;-65
2021/08/02 00:51:03;;;;;;;1.93;1.40;;;18.60;99.90;;;;;;6273043;28;20232;-65
2021/08/02 00:54:08;;;;;;;1.77;1.30;;;18.60;99.90;;;;;;6274411;28;20482;-65
2021/08/02 00:57:12;;;;;;;1.13;1.03;;;18.60;99.90;;;;;;6273928;28;20462;-65
2021/08/02 01:00:19;;;;;;;1.30;1.20;;;18.60;99.90;;;;;;6274259;28;20588;-66
2021/08/02 01:03:22;;;;;;;1.10;1.00;;;18.60;99.90;;;;;;6273894;28;20481;-65
2021/08/02 01:06:30;;;;;;;1.60;1.33;;;18.50;99.90;;;;;;6273800;28;20492;-66
2021/08/02 01:09:35;;;;;;;2.67;1.53;;;18.50;99.90;;;;;;6274241;28;20457;-65
2021/08/02 01:12:42;;;;;;;1.80;1.40;;;18.60;99.90;;;;;;6274036;28;20445;-65
2021/08/02 01:15:49;;;;;;;1.50;1.40;;;18.70;99.90;;;;;;6273766;28;20243;-65
2021/08/02 01:18:53;;;;;;;2.40;1.27;;;18.70;99.90;;;;;;6273602;28;20450;-65
2021/08/02 01:22:00;;;;;;;2.97;1.63;;;18.70;99.90;;;;;;6273743;28;20711;-65
2021/08/02 01:25:56;;;;;;;1.40;1.30;;;18.70;99.90;;;;;;6276415;28;20485;-65
2021/08/02 01:29:36;;;;;;;1.40;1.30;;;18.50;99.90;;;;;;6278785;28;20219;-65
2021/08/02 01:32:39;;;;;;;1.87;1.30;;;18.60;99.90;;;;;;6278614;28;20958;-65
2021/08/02 01:35:44;;;;;;;5.13;1.47;;;18.50;99.90;;;;;;6278599;28;20474;-65
2021/08/02 01:38:48;;;;;;;1.97;1.27;;;18.40;99.90;;;;;;6278408;28;20241;-65
2021/08/02 01:41:52;;;;;;;1.60;1.50;;;18.40;99.90;;;;;;6278573;28;20815;-65
2021/08/02 01:44:55;;;;;;;2.87;1.73;;;18.40;99.90;;;;;;6278444;28;20478;-66
2021/08/02 01:48:04;;;;;;;1.87;1.77;;;18.40;99.90;;;;;;6278350;28;20979;-66
2021/08/02 01:51:13;;;;;;;4.43;1.90;;;18.40;99.90;;;;;;6278322;28;20488;-64
2021/08/02 01:54:30;;;;;;;1.60;1.50;;;18.40;99.90;;;;;;6277895;28;20470;-64
2021/08/02 01:57:39;;;;;;;2.03;1.40;;;18.30;99.90;;;;;;6278440;28;20446;-64
2021/08/02 02:00:47;;;;;;;2.67;1.23;;;18.30;99.90;;;;;;6278334;28;20422;-64
2021/08/02 02:03:51;;;;;;;2.17;1.40;;;18.20;99.90;;;;;;6278241;28;20563;-65
2021/08/02 02:06:58;;;;;;;2.30;1.27;;;18.20;99.90;;;;;;6277922;28;20488;-64
2021/08/02 02:10:02;;;;;;;2.00;1.53;;;18.20;99.90;;;;;;6278244;28;20480;-64
2021/08/02 02:13:09;;;;;;;1.30;1.20;;;18.20;99.90;;;;;;6277855;28;20543;-65
2021/08/02 02:16:14;;;;;;;1.30;1.20;;;18.10;99.90;;;;;;6278086;28;20470;-65
2021/08/02 02:19:23;;;;;;;1.63;1.50;;;18.10;99.90;;;;;;6277875;28;20490;-64
2021/08/02 02:22:27;;;;;;;1.80;1.33;;;18.10;99.90;;;;;;6277749;28;20477;-65
2021/08/02 02:25:31;;;;;;;1.47;1.37;;;18.10;99.90;;;;;;6277294;28;20478;-65
2021/08/02 02:28:37;;;;;;;2.40;1.50;;;18.10;99.90;;;;;;6276541;28;20476;-65
2021/08/02 02:31:42;;;;;;;1.80;1.30;;;18.10;99.90;;;;;;6277366;28;20505;-65
2021/08/02 02:34:49;;;;;;;2.30;1.67;;;18.20;99.90;;;;;;6276698;28;20474;-65
2021/08/02 02:37:53;;;;;;;3.77;1.90;;;18.10;99.90;;;;;;6277394;28;20481;-65
2021/08/02 02:40:58;;;;;;;1.70;1.60;;;18.10;99.90;;;;;;6277454;28;20481;-65
2021/08/02 02:44:04;;;;;;;2.67;1.40;;;18.10;99.90;;;;;;6277021;28;20516;-65
2021/08/02 02:47:08;;;;;;;1.70;1.60;;;18.10;99.90;;;;;;6277303;28;20486;-65
2021/08/02 02:50:12;;;;;;;2.10;1.57;;;18.10;99.90;;;;;;6276922;28;20477;-65
2021/08/02 02:53:17;;;;;;;2.07;1.30;;;18.10;99.90;;;;;;6277007;28;20547;-65
2021/08/02 02:56:21;;;;;;;1.67;1.57;;;18.10;99.90;;;;;;6276841;28;20470;-64
2021/08/02 02:59:25;;;;;;;6.47;1.50;;;18.10;99.90;;;;;;6276877;28;20478;-65
2021/08/02 03:02:29;;;;;;;1.63;1.40;;;18.10;99.90;;;;;;6276714;28;20482;-65
2021/08/02 03:05:36;;;;;;;1.70;1.60;;;18.10;99.90;;;;;;6276438;28;20504;-64
2021/08/02 03:08:41;;;;;;;1.53;1.43;;;18.20;99.90;;;;;;6276481;28;20235;-65
2021/08/02 03:11:44;;;;;;;2.37;1.73;;;18.20;99.90;;;;;;6276487;28;20477;-64
2021/08/02 03:14:49;;;;;;;3.43;1.50;;;18.20;99.90;;;;;;6276136;28;20478;-65
2021/08/02 03:17:53;;;;;;;1.37;1.27;;;18.20;99.90;;;;;;6276374;28;20516;-65
2021/08/02 03:20:56;;;;;;;1.87;1.30;;;18.20;99.90;;;;;;6276052;28;20536;-65
2021/08/02 03:24:08;;;;;;;1.60;1.50;;;18.10;99.90;;;;;;6276087;28;20478;-65
2021/08/02 03:27:20;;;;;;;2.97;1.90;;;18.00;99.90;;;;;;6276033;28;20481;-65
2021/08/02 03:30:27;;;;;;;2.10;1.50;;;17.90;99.90;;;;;;6275888;28;20485;-65
2021/08/02 03:33:34;;;;;;;2.40;2.00;;;17.90;99.90;;;;;;6275666;28;20817;-65
2021/08/02 03:36:38;;;;;;;2.53;1.50;;;17.80;99.90;;;;;;6275755;28;21055;-67
2021/08/02 03:39:43;;;;;;;1.77;1.67;;;17.70;99.90;;;;;;6275693;28;20442;-65
2021/08/02 03:42:47;;;;;;;3.60;1.90;;;17.70;99.90;;;;;;6276549;28;20439;-65
2021/08/02 03:45:52;;;;;;;2.50;1.57;;;17.70;99.90;;;;;;6275811;28;20588;-65
2021/08/02 03:48:56;;;;;;;1.63;1.53;;;17.70;99.90;;;;;;6274730;28;20470;-64
2021/08/02 03:52:01;;;;;;;1.90;1.80;;;17.70;99.90;;;;;;6275298;28;20458;-65
2021/08/02 03:55:06;;;;;;;3.00;1.93;;;17.70;99.90;;;;;;6275122;28;20470;-65
2021/08/02 03:58:09;;;;;;;1.80;1.70;;;17.60;99.90;;;;;;6275463;28;20520;-64
2021/08/02 04:01:14;;;;;;;1.87;1.40;;;17.60;99.90;;;;;;6275371;28;20474;-66
2021/08/02 04:04:17;;;;;;;1.70;1.60;;;17.60;99.90;;;;;;6275462;28;20473;-65
2021/08/02 04:07:20;;;;;;;3.60;2.30;;;17.50;99.90;;;;;;6274806;28;20979;-65
2021/08/02 04:10:24;;;;;;;1.87;1.63;;;17.50;99.90;;;;;;6275196;28;20480;-66
2021/08/02 04:13:28;;;;;;;4.50;1.70;;;17.50;99.90;;;;;;6274721;28;20508;-65
2021/08/02 04:16:32;;;;;;;1.93;1.83;;;17.50;99.90;;;;;;6274508;28;20489;-66
2021/08/02 04:19:36;;;;;;;5.20;2.00;;;17.40;99.90;;;;;;6275064;28;20556;-65
2021/08/02 04:22:39;;;;;;;4.53;2.07;;;17.50;99.90;;;;;;6274571;28;20966;-66
2021/08/02 04:25:43;;;;;;;2.80;1.40;;;17.50;99.90;;;;;;6275004;28;20559;-65
2021/08/02 04:28:46;;;;;;;2.37;1.80;;;17.60;99.90;;;;;;6274835;28;20474;-66
2021/08/02 04:31:50;;;;;;;2.27;1.80;;;17.70;99.90;;;;;;6274967;28;20981;-66
2021/08/02 04:34:53;;;;;;;3.13;2.10;;;17.90;99.90;;;;;;6274803;28;20519;-66
2021/08/02 04:37:56;;;;;;;2.80;2.60;;;18.10;99.90;;;;;;6274442;28;20462;-66
2021/08/02 04:41:00;;;;;;;2.10;1.90;;;18.20;99.90;;;;;;6274232;28;20817;-66
2021/08/02 04:44:03;;;;;;;2.77;2.03;;;18.20;99.90;;;;;;6274628;28;20466;-66
2021/08/02 04:47:08;;;;;;;2.07;1.50;;;18.20;99.90;;;;;;6274497;28;20488;-65
2021/08/02 04:50:11;;;;;;;2.27;1.90;;;18.30;99.90;;;;;;6274439;28;20481;-65
2021/08/02 04:53:14;;;;;;;5.60;1.90;;;18.30;99.90;;;;;;6274360;28;20975;-65
2021/08/02 04:56:17;;;;;;;1.70;1.50;;;18.40;99.90;;;;;;6274162;28;20466;-66
2021/08/02 04:59:21;;;;;;;2.60;1.70;;;18.60;99.90;;;;;;6273972;28;20478;-66
2021/08/02 05:02:25;;;;;;;1.97;1.40;;;18.80;99.90;;;;;;6276347;28;20469;-66
2021/08/02 05:05:29;;;;;;;3.00;2.10;;;19.00;99.90;;;;;;6292843;28;20241;-66
2021/08/02 05:08:32;;;;;;;1.87;1.77;;;19.00;99.90;;;;;;6299053;28;20372;-67
2021/08/02 05:11:35;;;;;;;1.53;1.43;;;19.10;99.90;;;;;;6299021;28;20473;-65
2021/08/02 05:14:38;;;;;;;5.97;1.50;;;19.10;99.90;;;;;;6298675;28;20481;-66
2021/08/02 05:17:43;;;;;;;2.27;1.40;;;19.20;99.90;;;;;;6298761;28;20465;-66
2021/08/02 05:20:46;;;;;;;2.47;1.60;;;19.20;99.90;;;;;;6298527;28;21027;-66
2021/08/02 05:23:49;;;;;;;2.00;1.60;;;19.10;99.90;;;;;;6298959;28;20484;-66
2021/08/02 05:26:52;;;;;;;2.13;1.77;;;19.00;99.90;;;;;;6298665;28;20226;-66
2021/08/02 05:29:55;;;;;;;1.80;1.50;;;19.20;99.90;;;;;;6298642;28;20239;-66
2021/08/02 05:33:00;;;;;;;2.10;2.00;;;19.30;99.90;;;;;;6298360;28;20230;-66
2021/08/02 05:36:04;;;;;;;2.47;1.43;;;19.40;99.90;;;;;;6298398;28;20683;-66
2021/08/02 05:39:07;;;;;;;1.60;1.50;;;19.40;99.90;;;;;;6298610;28;20543;-67
2021/08/02 05:42:10;;;;;;;2.80;1.70;;;19.50;99.90;;;;;;6298781;28;20235;-66
2021/08/02 05:45:14;;;;;;;3.13;2.13;;;19.60;99.90;;;;;;6297460;28;20288;-66
2021/08/02 05:48:19;;;;;;;1.33;1.23;;;19.60;99.90;;;;;;6295965;28;20235;-66
2021/08/02 05:51:22;;;;;;;2.13;1.57;;;19.70;99.90;;;;;;6296093;28;20238;-66
2021/08/02 05:54:25;;;;;;;1.40;1.30;;;19.80;99.90;;;;;;6291448;28;20249;-66
2021/08/02 05:57:28;;;;;;;1.67;1.57;;;20.40;99.90;;;;;;6296161;28;20687;-66
2021/08/02 06:00:31;;;;;;;3.53;1.77;;;21.10;99.90;;;;;;6297492;28;20679;-67
2021/08/02 06:03:36;;;;;;;3.40;1.33;;;21.30;99.90;;;;;;6298218;28;20223;-66
2021/08/02 06:06:39;;;;;;;4.27;1.50;;;21.10;99.90;;;;;;6297144;28;20214;-68
2021/08/02 06:09:42;;;;;;;5.73;2.17;;;21.00;99.90;;;;;;6296839;28;20223;-67
2021/08/02 06:12:45;;;;;;;1.73;1.40;;;21.00;99.60;;;;;;6301736;28;20267;-67
2021/08/02 06:15:48;;;;;;;2.67;1.80;;;21.00;99.80;;;;;;6301584;28;20210;-67
2021/08/02 06:18:53;;;;;;;2.20;1.60;;;21.00;99.90;;;;;;6301244;28;20241;-67
2021/08/02 06:21:56;;;;;;;3.40;1.67;;;21.20;99.70;;;;;;6301885;28;20678;-67
2021/08/02 06:24:59;;;;;;;1.97;1.20;;;21.40;99.60;;;;;;6302662;28;20239;-67
2021/08/02 06:28:02;;;;;;;4.30;1.50;;;21.60;99.00;;;;;;6302456;28;20234;-67
2021/08/02 06:31:06;;;;;;;2.73;1.50;;;21.80;98.70;;;;;;6302631;28;20237;-67
2021/08/02 06:34:11;;;;;;;1.83;1.60;;;22.00;98.00;;;;;;6302175;28;20241;-67
2021/08/02 06:37:14;;;;;;;2.40;1.53;;;22.20;97.40;;;;;;6302002;28;20235;-66
2021/08/02 06:40:17;;;;;;;5.10;2.10;;;22.50;96.60;;;;;;6302249;28;20222;-66
2021/08/02 06:43:25;;;;;;;3.23;1.57;;;22.70;95.70;;;;;;6302140;28;20582;-66
2021/08/02 06:46:28;;;;;;;2.20;1.60;;;22.70;95.40;;;;;;6301726;28;20235;-65
2021/08/02 06:49:33;;;;;;;2.10;1.43;;;22.70;96.10;;;;;;6302242;28;20235;-66
2021/08/02 06:52:37;;;;;;;1.50;1.40;;;22.80;95.80;;;;;;6295394;28;20603;-66
2021/08/02 06:55:40;;;;;;;2.80;1.60;;;22.80;94.00;;;;;;6272390;28;20273;-68
2021/08/02 06:58:44;;;;;;;3.57;1.23;;;22.90;93.20;;;;;;6276804;28;20670;-66
2021/08/02 07:01:47;;;;;;;1.70;1.40;;;23.10;92.70;;;;;;6279716;28;20684;-66
2021/08/02 07:04:52;;;;;;;1.77;1.43;;;23.30;92.20;;;;;;6284871;28;20303;-65
2021/08/02 07:07:55;;;;;;;4.00;1.70;;;23.40;91.30;;;;;;6283311;28;20227;-66
2021/08/02 07:10:58;;;;;;;2.70;1.00;;;23.40;90.90;;;;;;6284731;28;20223;-68
2021/08/02 07:14:01;;;;;;;2.57;1.30;;;23.50;90.60;;;;;;6276199;28;20235;-68
2021/08/02 07:17:05;;;;;;;2.03;1.00;;;23.70;90.50;;;;;;6286009;28;20273;-66
2021/08/02 07:20:11;;;;;;;2.33;1.67;;;23.90;90.00;;;;;;6298295;28;20741;-65
2021/08/02 07:23:14;;;;;;;2.00;1.40;;;24.10;90.00;;;;;;6301103;28;20231;-65
2021/08/02 07:26:17;;;;;;;1.70;1.30;;;25.00;87.40;;;;;;6300800;28;20258;-65
2021/08/02 07:29:20;;;;;;;2.30;1.40;;;26.30;80.80;;;;;;6301198;28;20261;-65
2021/08/02 07:32:24;;;;;;;1.60;1.50;;;28.40;74.20;;;;;;6300780;28;20226;-65
2021/08/02 07:35:28;;;;;;;1.97;1.20;;;30.50;64.20;;;;;;6300846;28;20272;-64
2021/08/02 07:38:32;;;;;;;4.20;1.40;;;32.30;56.00;;;;;;6300678;28;20237;-67
2021/08/02 07:41:35;;;;;;;1.98;1.25;;;32.10;52.60;;;;;;6300925;28;20222;-67
2021/08/02 07:44:38;;;;;;;1.85;1.45;;;32.80;50.60;;;;;;6300647;28;20238;-66
2021/08/02 07:47:42;;;;;;;3.20;0.80;;;34.40;46.60;;;;;;6300423;28;20234;-66
2021/08/02 07:50:46;;;;;;;3.67;1.00;;;35.40;42.50;;;;;;6300236;28;20234;-64
2021/08/02 07:53:49;;;;;;;1.25;1.02;;;37.20;41.50;;;;;;6300523;28;20230;-64
2021/08/02 07:56:52;;;;;;;2.80;1.50;;;39.30;37.70;;;;;;6271709;28;20539;-63
2021/08/02 07:59:56;;;;;;;1.20;1.10;;;40.70;33.60;;;;;;6283197;28;20267;-63
2021/08/02 08:02:59;;;;;;;3.17;1.40;;;40.80;32.70;;;;;;6275121;28;20237;-62
2021/08/02 08:06:04;;;;;;;4.97;1.60;;;41.00;35.50;;;;;;6260456;28;20235;-63
2021/08/02 08:09:07;;;;;;;2.75;1.60;;;41.50;34.70;;;;;;6249902;28;20235;-63
2021/08/02 08:12:10;;;;;;;2.28;1.60;;;42.60;33.20;;;;;;6264872;28;20219;-62
2021/08/02 08:15:14;;;;;;;1.83;1.20;;;42.70;30.90;;;;;;6285318;28;20231;-63
2021/08/02 08:18:17;;;;;;;3.22;1.00;;;41.10;30.00;;;;;;6285523;28;20253;-63
2021/08/02 08:21:21;;;;;;;1.73;1.60;;;40.70;30.20;;;;;;6285851;28;20227;-64
2021/08/02 08:24:25;;;;;;;1.40;1.30;;;41.30;29.40;;;;;;6287591;28;20230;-63
2021/08/02 08:27:28;;;;;;;2.47;1.17;;;42.60;28.80;;;;;;6285683;28;20222;-68
2021/08/02 08:30:31;;;;;;;1.75;1.00;;;42.90;28.90;;;;;;6283797;28;20304;-65
2021/08/02 08:33:34;;;;;;;3.83;1.50;;;42.10;29.20;;;;;;6273605;28;20227;-65
2021/08/02 08:36:39;;;;;;;1.63;1.08;;;40.80;29.40;;;;;;6274388;28;20640;-65
2021/08/02 08:39:42;;;;;;;2.85;1.35;;;39.50;30.30;;;;;;6279312;28;20203;-61
2021/08/02 08:42:46;;;;;;;3.20;1.20;;;38.40;33.00;;;;;;6295120;28;20203;-60
2021/08/02 08:45:50;;;;;;;2.15;1.38;;;36.70;34.30;;;;;;6298675;28;20293;-60
2021/08/02 08:48:53;;;;;;;2.33;1.60;;;36.00;34.00;;;;;;6273917;28;20223;-63
2021/08/02 08:51:58;;;;;;;1.95;1.00;;;35.90;31.70;;;;;;6274241;28;20223;-62
2021/08/02 08:55:04;;;;;;;1.40;1.27;;;35.60;34.50;;;;;;6273952;28;20242;-62
2021/08/02 08:58:07;;;;;;;1.27;1.13;;;35.20;34.40;;;;;;6273617;28;20284;-60
2021/08/02 09:01:10;;;;;;;2.00;0.90;;;34.70;34.50;;;;;;6273550;28;20226;-63
2021/08/02 09:04:14;;;;;;;1.30;0.90;;;34.00;37.40;;;;;;6264982;28;20238;-62
2021/08/02 09:07:18;;;;;;;1.27;0.90;;;33.30;38.10;;;;;;6273688;28;20230;-62
2021/08/02 09:10:22;;;;;;;1.50;1.30;;;32.10;39.10;;;;;;6274004;28;20238;-61
2021/08/02 09:13:31;;;;;;;1.73;0.98;;;30.90;42.10;;;;;;6256542;28;20574;-60
2021/08/02 09:16:35;;;;;;;1.53;1.00;;;30.30;42.80;;;;;;6248639;28;20232;-61
2021/08/02 09:19:41;;;;;;;0.80;0.60;;;29.80;42.90;;;;;;6265106;28;20699;-60
2021/08/02 09:22:45;;;;;;;1.60;1.10;;;29.00;44.80;;;;;;6273625;28;20667;-61
2021/08/02 09:25:50;;;;;;;1.63;0.97;;;28.90;46.10;;;;;;6273787;28;20231;-62
2021/08/02 09:28:54;;;;;;;1.37;0.83;;;28.90;45.60;;;;;;6273718;28;20568;-61
2021/08/02 09:31:57;;;;;;;2.10;1.00;;;28.20;46.40;;;;;;6273494;28;20231;-59
2021/08/02 09:35:00;;;;;;;1.73;1.07;;;28.10;48.20;;;;;;6273417;28;20579;-60
2021/08/02 09:38:06;;;;;;;2.60;1.47;;;27.90;47.80;;;;;;6273461;28;20226;-62
2021/08/02 09:41:19;;;;;;;2.33;1.10;;;27.60;48.60;;;;;;6248753;28;20232;-59
2021/08/02 09:44:24;;;;;;;1.90;1.10;;;27.10;50.40;;;;;;6262644;28;20231;-59
2021/08/02 09:47:29;;;;;;;1.60;0.90;;;26.80;50.70;;;;;;6277369;28;20234;-59
2021/08/02 09:50:32;;;;;;;1.37;0.80;;;26.40;51.70;;;;;;6278261;28;20235;-61
2021/08/02 09:53:39;;;;;;;1.70;0.80;;;26.30;52.40;;;;;;6277652;28;20223;-59
2021/08/02 09:56:49;;;;;;;1.20;0.67;;;26.60;52.80;;;;;;6277993;28;20231;-59
2021/08/02 09:59:52;;;;;;;4.33;0.77;;;26.50;53.70;;;;;;6277733;28;20264;-61
2021/08/02 10:02:56;;;;;;;1.57;0.80;;;26.20;53.10;;;;;;6277881;28;20241;-62
2021/08/02 10:06:00;;;;;;;1.23;1.10;;;26.20;53.30;;;;;;6260869;28;20695;-62
2021/08/02 10:09:09;;;;;;;1.20;0.90;;;26.00;53.50;;;;;;6264340;28;20223;-62
2021/08/02 10:12:12;;;;;;;1.23;0.97;;;25.90;54.50;;;;;;6292112;28;20337;-62
2021/08/02 10:15:18;;;;;;;3.47;0.80;;;26.20;54.10;;;;;;6286446;28;20690;-61
2021/08/02 10:18:22;;;;;;;1.27;0.90;;;26.80;53.70;;;;;;6288862;28;20513;-59
2021/08/02 10:21:38;;;;;;;1.23;0.80;;;26.60;54.00;;;;;;6278532;28;20226;-60
2021/08/02 10:24:50;;;;;;;1.63;0.90;;;26.70;53.90;;;;;;6277043;28;20227;-60
2021/08/02 10:27:53;;;;;;;1.00;0.80;;;26.20;55.70;;;;;;6277372;28;20195;-60
2021/08/02 10:31:04;;;;;;;1.27;1.10;;;26.20;55.80;;;;;;6276934;28;20240;-60
2021/08/02 10:34:15;;;;;;;1.10;0.80;;;26.00;56.50;;;;;;6276302;28;20242;-60
2021/08/02 10:37:30;;;;;;;1.23;1.10;;;25.80;57.30;;;;;;6277012;28;20231;-59
2021/08/02 10:40:50;;;;;;;1.33;1.10;;;25.80;55.80;;;;;;6276670;28;20687;-62
2021/08/02 10:43:53;;;;;;;1.40;1.10;;;26.10;55.70;;;;;;6286433;28;20241;-62
2021/08/02 10:47:01;;;;;;;1.03;0.93;;;26.30;56.20;;;;;;6289979;28;20603;-64
2021/08/02 10:50:05;;;;;;;3.53;0.93;;;26.60;56.60;;;;;;6276685;28;20250;-64
2021/08/02 10:53:17;;;;;;;1.80;1.27;;;26.50;56.80;;;;;;6276607;28;20242;-64
2021/08/02 10:56:26;;;;;;;1.40;1.30;;;25.90;58.50;;;;;;6275869;28;20245;-62
2021/08/02 10:59:38;;;;;;;2.13;1.30;;;25.60;58.40;;;;;;6276463;28;20228;-65
2021/08/02 11:02:49;;;;;;;1.00;0.90;;;25.30;59.20;;;;;;6276212;28;20599;-61
2021/08/02 11:05:53;;;;;;;2.00;1.30;;;25.30;59.50;;;;;;6276236;28;20239;-66
2021/08/02 11:08:57;;;;;;;1.23;1.07;;;25.40;59.10;;;;;;6275766;28;20368;-62
2021/08/02 11:12:19;;;;;;;1.00;0.90;;;25.40;59.00;;;;;;6273991;28;20239;-63
2021/08/02 11:15:22;;;;;;;2.10;1.00;;;25.40;61.50;;;;;;6273387;28;20707;-63
2021/08/02 11:18:27;;;;;;;1.93;1.20;;;25.50;60.60;;;;;;6272587;28;20242;-62
2021/08/02 11:21:30;;;;;;;2.07;0.90;;;25.50;60.30;;;;;;6261909;28;20232;-61
2021/08/02 11:24:35;;;;;;;1.10;0.80;;;25.40;58.30;;;;;;6267488;28;20226;-61
2021/08/02 11:27:50;;;;;;;1.23;0.77;;;25.20;58.70;;;;;;6269013;28;20664;-62
2021/08/02 11:30:55;;;;;;;1.20;0.90;;;25.10;58.60;;;;;;6250463;28;20565;-60
2021/08/02 11:33:58;;;;;;;1.90;0.90;;;25.00;58.00;;;;;;6261034;28;20242;-64
2021/08/02 11:37:06;;;;;;;1.13;1.00;;;24.90;58.60;;;;;;6261914;28;20223;-61
2021/08/02 11:40:12;;;;;;;1.80;1.03;;;25.20;58.60;;;;;;6266502;28;20228;-62
2021/08/02 11:43:16;;;;;;;1.37;0.80;;;25.50;57.60;;;;;;6274097;28;20250;-63
2021/08/02 11:46:20;;;;;;;1.30;0.70;;;25.40;58.90;;;;;;6273718;28;20223;-62
2021/08/02 11:49:24;;;;;;;1.23;0.60;;;25.40;59.90;;;;;;6274076;28;20269;-67
2021/08/02 11:52:28;;;;;;;1.47;0.87;;;25.30;61.70;;;;;;6272982;28;20573;-64
2021/08/02 11:55:32;;;;;;;1.20;0.90;;;25.20;60.80;;;;;;6274552;28;20239;-64
2021/08/02 11:58:41;;;;;;;5.33;1.00;;;25.30;62.80;;;;;;6269391;28;20279;-63
2021/08/02 12:01:46;;;;;;;1.50;0.83;;;25.50;63.50;;;;;;6258139;28;20671;-64
2021/08/02 12:04:50;;;;;;;1.03;0.93;;;25.70;61.20;;;;;;6274274;28;20223;-62
2021/08/02 12:07:54;;;;;;;1.97;1.17;;;26.00;60.20;;;;;;6273908;28;20231;-62
2021/08/02 12:10:59;;;;;;;1.70;1.20;;;26.20;61.20;;;;;;6274564;28;20227;-62
2021/08/02 12:14:04;;;;;;;1.60;1.10;;;25.90;62.30;;;;;;6274460;28;20247;-63
2021/08/02 12:17:09;;;;;;;1.87;1.20;;;26.20;63.20;;;;;;6265082;28;20678;-63
2021/08/02 12:20:13;;;;;;;1.47;0.80;;;26.30;64.10;;;;;;6274334;28;20256;-63
2021/08/02 12:23:23;;;;;;;1.63;1.30;;;26.60;61.30;;;;;;6274487;28;20230;-63
2021/08/02 12:26:26;;;;;;;2.17;1.23;;;26.70;60.50;;;;;;6257569;28;20232;-62
2021/08/02 12:29:31;;;;;;;3.10;1.00;;;26.80;60.10;;;;;;6262271;28;20684;-64
2021/08/02 12:32:39;;;;;;;1.23;1.13;;;26.60;59.90;;;;;;6249183;28;20235;-63
2021/08/02 12:35:43;;;;;;;1.80;1.13;;;26.70;59.20;;;;;;6298990;28;20240;-65
2021/08/02 12:38:48;;;;;;;1.50;1.40;;;26.70;58.10;;;;;;6293193;28;20226;-64
2021/08/02 12:41:52;;;;;;;3.63;1.30;;;26.70;58.80;;;;;;6273954;28;20219;-65
2021/08/02 12:45:04;;;;;;;10.90;1.53;;;26.80;59.60;;;;;;6273273;28;20239;-65
2021/08/02 12:48:23;;;;;;;2.57;1.40;;;26.50;60.80;;;;;;6271789;28;20235;-64
2021/08/02 12:51:26;;;;;;;1.70;1.30;;;26.40;61.10;;;;;;6271414;28;20235;-65
2021/08/02 12:54:30;;;;;;;2.57;1.30;;;26.20;61.70;;;;;;6271577;28;20227;-65
2021/08/02 12:57:38;;;;;;;2.07;1.70;;;26.00;61.60;;;;;;6271224;28;20882;-64
2021/08/02 13:00:44;;;;;;;1.73;1.20;;;26.30;60.50;;;;;;6271715;28;20317;-64
2021/08/02 13:03:47;;;;;;;1.20;1.10;;;26.50;59.50;;;;;;6272539;28;20223;-64
2021/08/02 13:06:50;;;;;;;1.40;1.17;;;26.40;59.80;;;;;;6250766;28;20204;-64
2021/08/02 13:09:55;;;;;;;2.20;1.30;;;26.40;60.00;;;;;;6249236;28;20207;-63
2021/08/02 13:12:58;;;;;;;2.07;1.20;;;26.30;60.20;;;;;;6249463;28;20228;-64
2021/08/02 13:16:23;;;;;;;2.63;1.40;;;26.40;59.90;;;;;;6248938;28;20270;-64
2021/08/02 13:19:26;;;;;;;2.00;1.00;;;26.40;58.90;;;;;;6247334;28;20239;-64
2021/08/02 13:22:32;;;;;;;2.00;1.20;;;26.40;59.50;;;;;;6278122;28;20253;-67
2021/08/02 13:28:55;;;;;;;1.10;0.97;;;25.70;63.80;;;;;;6260424;28;20272;-67
2021/08/02 13:32:01;;;;;;;1.20;1.10;;;25.50;66.20;;;;;;6276466;28;20227;-62
2021/08/02 13:35:05;;;;;;;3.30;1.00;;;25.60;67.10;;;;;;6274204;28;20227;-61
2021/08/02 13:38:08;;;;;;;1.67;0.73;;;25.40;69.00;;;;;;6262764;28;20220;-61
2021/08/02 13:41:11;;;;;;;1.37;1.27;;;25.20;69.40;;;;;;6267811;28;20238;-62
2021/08/02 13:44:14;;;;;;;2.43;0.80;;;25.40;68.80;;;;;;6273474;28;20231;-65
2021/08/02 13:47:21;;;;;;;1.77;1.10;;;25.60;70.60;;;;;;6253720;28;20294;-64
2021/08/02 13:50:24;;;;;;;2.83;0.90;;;25.70;68.90;;;;;;6253615;28;20232;-63
2021/08/02 13:53:28;;;;;;;2.40;1.10;;;25.80;67.50;;;;;;6256108;28;20243;-62
2021/08/02 13:56:31;;;;;;;1.57;1.20;;;25.90;67.10;;;;;;6253377;28;20234;-66
2021/08/02 13:59:34;;;;;;;2.33;1.47;;;25.90;66.10;;;;;;6253266;28;20227;-67
2021/08/02 14:02:39;;;;;;;1.17;1.07;;;25.80;66.10;;;;;;6252981;28;20227;-68
2021/08/02 14:05:43;;;;;;;1.17;0.90;;;25.60;66.90;;;;;;6266886;28;20281;-66
2021/08/02 14:08:57;;;;;;;1.13;0.97;;;25.60;66.30;;;;;;6277760;28;20242;-65
2021/08/02 14:12:01;;;;;;;1.27;1.17;;;25.30;66.30;;;;;;6255155;28;20228;-65
2021/08/02 14:15:06;;;;;;;0.93;0.83;;;25.20;66.20;;;;;;6252197;28;20231;-66
2021/08/02 14:18:11;;;;;;;0.97;0.87;;;25.20;65.50;;;;;;6252594;28;20235;-64
2021/08/02 14:21:15;;;;;;;1.40;1.23;;;25.30;65.60;;;;;;6268208;28;20223;-65
2021/08/02 14:24:18;;;;;;;1.10;1.00;;;25.40;66.70;;;;;;6277410;28;20227;-63
2021/08/02 14:27:22;;;;;;;1.53;1.13;;;25.60;65.80;;;;;;6272702;28;20231;-63
2021/08/02 14:30:26;;;;;;;1.33;1.10;;;25.80;65.20;;;;;;6273575;28;20580;-64
2021/08/02 14:33:30;;;;;;;1.30;1.20;;;26.10;63.70;;;;;;6251529;28;20241;-63
2021/08/02 14:36:35;;;;;;;1.20;1.07;;;26.10;63.40;;;;;;6262564;28;20293;-63
2021/08/02 14:39:45;;;;;;;1.53;1.43;;;25.90;64.00;;;;;;6276826;28;20226;-67
2021/08/02 14:42:49;;;;;;;1.40;1.10;;;25.70;64.40;;;;;;6282623;28;20183;-64
2021/08/02 14:45:52;;;;;;;1.30;1.10;;;25.70;64.90;;;;;;6299586;28;20206;-65
2021/08/02 14:48:58;;;;;;;1.63;1.33;;;25.80;63.50;;;;;;6299589;28;20207;-64
2021/08/02 14:52:03;;;;;;;2.07;1.57;;;25.90;62.40;;;;;;6297777;28;20237;-64
2021/08/02 14:55:09;;;;;;;1.30;1.20;;;25.90;62.20;;;;;;6250141;28;20242;-65
2021/08/02 14:58:12;;;;;;;1.60;1.50;;;26.10;61.10;;;;;;6251435;28;20231;-67
2021/08/02 15:01:16;;;;;;;3.80;1.40;;;26.30;60.80;;;;;;6251541;28;20235;-63
2021/08/02 15:04:26;;;;;;;1.30;1.20;;;26.40;59.90;;;;;;6254380;28;20243;-69
2021/08/02 15:07:30;;;;;;;1.27;1.13;;;26.40;59.70;;;;;;6276538;28;20237;-65
2021/08/02 15:10:34;;;;;;;2.87;1.43;;;26.20;57.70;;;;;;6276594;28;20704;-64
2021/08/02 15:13:37;;;;;;;3.67;1.67;;;26.00;59.10;;;;;;6275587;28;20714;-65
2021/08/02 15:16:48;;;;;;;2.23;1.30;;;26.00;59.60;;;;;;6276637;28;20231;-64
2021/08/02 15:19:59;;;;;;;2.10;1.40;;;25.70;59.20;;;;;;6276292;28;20230;-63
2021/08/02 15:23:05;;;;;;;1.67;1.10;;;25.50;60.10;;;;;;6276053;28;20676;-62
2021/08/02 15:26:11;;;;;;;2.70;2.50;;;25.60;59.20;;;;;;6275805;28;20250;-64
2021/08/02 15:29:16;;;;;;;1.50;1.30;;;25.70;58.90;;;;;;6266559;28;20227;-65
2021/08/02 15:32:20;;;;;;;1.53;1.43;;;25.80;58.60;;;;;;6257134;28;20228;-66
2021/08/02 15:35:26;;;;;;;1.50;1.37;;;25.80;57.20;;;;;;6251005;28;20610;-65
2021/08/02 15:38:29;;;;;;;2.73;1.37;;;25.50;56.90;;;;;;6250911;28;20228;-65
2021/08/02 15:41:37;;;;;;;1.57;1.30;;;24.90;59.10;;;;;;6250783;28;20729;-67
2021/08/02 15:44:41;;;;;;;3.90;1.63;;;24.90;59.70;;;;;;6249422;28;20274;-66
2021/08/02 15:47:47;;;;;;;1.20;1.10;;;24.90;59.10;;;;;;6250721;28;20224;-65
2021/08/02 15:50:52;;;;;;;2.40;1.50;;;24.80;58.70;;;;;;6251037;28;20235;-66
2021/08/02 15:54:01;;;;;;;2.03;1.60;;;25.00;59.00;;;;;;6267169;28;20227;-62
2021/08/02 15:57:05;;;;;;;1.67;1.43;;;25.00;59.00;;;;;;6275318;28;20576;-61
2021/08/02 16:00:10;;;;;;;1.60;1.30;;;25.00;58.40;;;;;;6274954;28;20543;-60
2021/08/02 16:03:26;;;;;;;1.20;1.10;;;25.00;58.00;;;;;;6273648;28;20223;-61
2021/08/02 16:06:34;;;;;;;1.47;1.37;;;24.90;58.20;;;;;;6254363;28;20220;-63
2021/08/02 16:09:43;;;;;;;1.80;1.10;;;25.00;58.20;;;;;;6250490;28;20290;-63